createdAt,value
2023-02-13T00:00:14.679Z,101837.56
2023-02-13T00:00:58.141Z,101836.53
2023-02-13T00:01:50.592Z,101832.13
2023-02-13T00:02:45.920Z,101819.50
2023-02-13T00:03:31.490Z,101826.91
2023-02-13T00:04:20.061Z,101826.91
2023-02-13T00:05:07.962Z,101831.28
2023-02-13T00:05:49.690Z,101815.34
2023-02-13T00:06:33.477Z,101824.56
2023-02-13T00:07:20.994Z,101830.38
2023-02-13T00:08:08.251Z,101811.03
2023-02-13T00:09:04.682Z,101833.00
2023-02-13T00:09:56.794Z,101801.47
2023-02-13T00:10:43.560Z,101820.06
2023-02-13T00:11:32.706Z,101831.91
2023-02-13T00:12:28.856Z,101826.56
2023-02-13T00:13:15.648Z,101822.25
2023-02-13T00:13:58.445Z,101811.53
2023-02-13T00:14:40.453Z,101808.25
2023-02-13T00:15:36.736Z,101823.94
2023-02-13T00:16:19.967Z,101828.34
2023-02-13T00:17:01.906Z,101809.78
2023-02-13T00:17:48.457Z,101793.63
2023-02-13T00:18:44.878Z,101832.13
2023-02-13T00:19:43.578Z,101819.31
2023-02-13T00:20:25.280Z,101827.34
2023-02-13T00:21:15.198Z,101829.19
2023-02-13T00:22:02.949Z,101819.81
2023-02-13T00:22:49.095Z,101826.09
2023-02-13T00:23:35.278Z,101807.59
2023-02-13T00:24:22.486Z,101752.03
2023-02-13T00:25:07.979Z,101792.97
2023-02-13T00:26:09.872Z,101823.72
2023-02-13T00:26:53.168Z,101826.34
2023-02-13T00:27:42.584Z,101824.66
2023-02-13T00:28:27.580Z,101807.84
2023-02-13T00:29:12.327Z,101829.13
2023-02-13T00:30:04.418Z,101807.91
2023-02-13T00:30:46.665Z,101814.84
2023-02-13T00:31:36.557Z,101791.28
2023-02-13T00:32:19.731Z,101824.22
2023-02-13T00:33:10.329Z,101817.63
2023-02-13T00:33:57.913Z,101825.16
2023-02-13T00:34:39.622Z,101803.34
2023-02-13T00:35:26.796Z,101826.84
2023-02-13T00:36:24.448Z,101826.84
2023-02-13T00:37:07.566Z,101829.47
2023-02-13T00:37:51.577Z,101824.22
2023-02-13T00:38:50.468Z,101831.25
2023-02-13T00:39:35.139Z,101798.28
2023-02-13T00:40:19.855Z,101823.56
2023-02-13T00:41:12.329Z,101828.72
2023-02-13T00:42:04.125Z,101826.09
2023-02-13T00:42:45.787Z,101810.88
2023-02-13T00:43:28.096Z,101831.31
2023-02-13T00:44:17.525Z,101827.84
2023-02-13T00:45:11.676Z,101805.22
2023-02-13T00:45:59.626Z,101834.88
2023-02-13T00:46:58.850Z,101828.78
2023-02-13T00:47:40.602Z,101829.63
2023-02-13T00:48:40.780Z,101834.88
2023-02-13T00:49:22.827Z,101823.88
2023-02-13T00:50:04.996Z,101833.19
2023-02-13T00:51:03.470Z,101832.34
2023-02-13T00:51:56.356Z,101830.56
2023-02-13T00:52:38.018Z,101832.34
2023-02-13T00:53:31.789Z,101834.34
2023-02-13T00:54:23.662Z,101838.41
2023-02-13T00:55:08.466Z,101820.50
2023-02-13T00:55:52.272Z,101835.63
2023-02-13T00:56:45.422Z,101834.72
2023-02-13T00:57:33.018Z,101831.16
2023-02-13T00:58:35.042Z,101834.50
2023-02-13T00:59:25.488Z,101825.31
2023-02-13T01:00:13.679Z,101832.66
2023-02-13T01:01:05.545Z,101797.97
2023-02-13T01:02:01.616Z,101841.13
2023-02-13T01:02:44.454Z,101836.03
2023-02-13T01:03:28.900Z,101826.78
2023-02-13T01:04:20.402Z,101840.13
2023-02-13T01:05:11.323Z,101807.91
2023-02-13T01:06:01.988Z,101818.81
2023-02-13T01:07:15.753Z,101845.06
2023-02-13T01:08:03.838Z,101845.75
2023-02-13T01:08:48.156Z,101808.25
2023-02-13T01:10:49.627Z,101846.16
2023-02-13T01:11:43.163Z,101832.50
2023-02-13T01:12:31.925Z,101824.41
2023-02-13T01:13:20.982Z,101846.84
2023-02-13T01:14:10.143Z,101833.16
2023-02-13T01:14:52.545Z,101841.97
2023-02-13T01:15:37.391Z,101827.91
2023-02-13T01:16:32.317Z,101839.00
2023-02-13T01:17:25.869Z,101846.53
2023-02-13T01:18:13.351Z,101851.66
2023-02-13T01:18:57.637Z,101844.63
2023-02-13T01:19:45.322Z,101851.56
2023-02-13T01:20:35.846Z,101835.44
2023-02-13T01:21:24.424Z,101851.56
2023-02-13T01:22:16.883Z,101837.13
2023-02-13T01:22:58.904Z,101840.31
2023-02-13T01:23:48.235Z,101830.13
2023-02-13T01:24:34.203Z,101841.69
2023-02-13T01:25:18.536Z,101844.31
2023-02-13T01:26:11.772Z,101837.69
2023-02-13T01:26:53.481Z,101806.31
2023-02-13T01:27:47.238Z,101826.66
2023-02-13T01:28:38.623Z,101808.47
2023-02-13T01:29:26.650Z,101810.94
2023-02-13T01:30:15.461Z,101829.25
2023-02-13T01:30:58.478Z,101807.47
2023-02-13T01:31:45.660Z,101821.81
2023-02-13T01:32:33.295Z,101823.50
2023-02-13T01:33:19.354Z,101823.25
2023-02-13T01:34:01.037Z,101829.19
2023-02-13T01:34:46.732Z,101829.06
2023-02-13T01:35:40.123Z,101828.22
2023-02-13T01:36:30.737Z,101831.59
2023-02-13T01:37:15.021Z,101828.13
2023-02-13T01:37:56.749Z,101827.28
2023-02-13T01:38:41.724Z,101830.75
2023-02-13T01:39:28.303Z,101830.75
2023-02-13T01:40:17.222Z,101811.25
2023-02-13T01:41:00.809Z,101826.56
2023-02-13T01:41:42.524Z,101820.56
2023-02-13T01:42:40.885Z,101824.03
2023-02-13T01:43:27.987Z,101825.88
2023-02-13T01:44:51.730Z,101832.88
2023-02-13T01:45:37.181Z,101821.66
2023-02-13T01:46:45.067Z,101827.81
2023-02-13T01:47:41.063Z,101771.16
2023-02-13T01:48:32.952Z,101817.09
2023-02-13T01:49:28.508Z,101821.16
2023-02-13T01:50:18.757Z,101819.47
2023-02-13T01:51:17.458Z,101803.59
2023-02-13T01:51:59.138Z,101821.41
2023-02-13T01:52:54.008Z,101824.13
2023-02-13T01:54:05.658Z,101818.03
2023-02-13T01:54:58.268Z,101819.97
2023-02-13T01:55:50.942Z,101803.69
2023-02-13T01:56:46.943Z,101813.72
2023-02-13T01:57:56.757Z,101810.16
2023-02-13T01:58:55.907Z,101810.94
2023-02-13T02:00:18.364Z,101809.84
2023-02-13T02:01:05.864Z,101803.06
2023-02-13T02:02:00.957Z,101787.53
2023-02-13T02:02:53.150Z,101806.94
2023-02-13T02:03:52.451Z,101806.94
2023-02-13T02:04:41.771Z,101805.00
2023-02-13T02:05:33.581Z,101815.31
2023-02-13T02:06:25.699Z,101804.75
2023-02-13T02:07:34.175Z,101802.13
2023-02-13T02:08:46.051Z,101807.44
2023-02-13T02:09:46.318Z,101805.75
2023-02-13T02:10:33.974Z,101799.91
2023-02-13T02:11:28.602Z,101805.00
2023-02-13T02:12:21.358Z,101771.41
2023-02-13T02:13:18.055Z,101780.50
2023-02-13T02:14:05.027Z,101792.44
2023-02-13T02:14:58.530Z,101787.53
2023-02-13T02:15:51.088Z,101811.34
2023-02-13T02:16:37.876Z,101810.84
2023-02-13T02:17:21.603Z,101794.81
2023-02-13T02:18:31.979Z,101808.41
2023-02-13T02:19:42.534Z,101813.03
2023-02-13T02:20:48.575Z,101790.50
2023-02-13T02:21:52.242Z,101809.00
2023-02-13T02:23:18.263Z,101812.72
2023-02-13T02:24:29.348Z,101806.84
2023-02-13T02:25:50.535Z,101806.31
2023-02-13T02:26:56.928Z,101806.66
2023-02-13T02:28:06.197Z,101811.13
2023-02-13T02:29:31.014Z,101794.81
2023-02-13T02:30:43.175Z,101809.84
2023-02-13T02:32:01.527Z,101801.41
2023-02-13T02:33:07.691Z,101807.59
2023-02-13T02:34:10.487Z,101795.59
2023-02-13T02:35:20.496Z,101792.63
2023-02-13T02:36:33.454Z,101802.84
2023-02-13T02:37:18.476Z,101802.94
2023-02-13T02:38:19.169Z,101795.47
2023-02-13T02:39:19.728Z,101805.72
2023-02-13T02:40:33.512Z,101798.03
2023-02-13T02:41:47.334Z,101794.81
2023-02-13T02:43:00.884Z,101794.91
2023-02-13T02:44:00.505Z,101796.69
2023-02-13T02:44:52.758Z,101794.97
2023-02-13T02:46:04.328Z,101793.28
2023-02-13T02:47:37.317Z,101796.84
2023-02-13T02:48:57.719Z,101793.44
2023-02-13T02:50:01.941Z,101793.59
2023-02-13T02:50:48.666Z,101786.25
2023-02-13T02:51:43.026Z,101801.81
2023-02-13T02:53:11.040Z,101688.53
2023-02-13T02:54:02.731Z,101785.13
2023-02-13T02:55:10.223Z,101769.25
2023-02-13T02:56:30.868Z,101780.91
2023-02-13T02:57:53.931Z,101799.06
2023-02-13T02:59:00.674Z,101783.78
2023-02-13T03:00:31.538Z,101773.13
2023-02-13T03:01:43.613Z,101798.63
2023-02-13T03:02:50.753Z,101792.72
2023-02-13T03:03:55.542Z,101791.88
2023-02-13T03:05:09.692Z,101763.97
2023-02-13T03:06:10.554Z,101773.34
2023-02-13T03:07:15.729Z,101755.19
2023-02-13T03:07:57.462Z,101775.59
2023-02-13T03:09:06.291Z,101783.88
2023-02-13T03:10:17.411Z,101787.34
2023-02-13T03:11:19.115Z,101787.75
2023-02-13T03:12:30.772Z,101787.13
2023-02-13T03:13:24.549Z,101793.00
2023-02-13T03:14:14.025Z,101777.78
2023-02-13T03:15:04.039Z,101763.66
2023-02-13T03:16:22.573Z,101789.75
2023-02-13T03:17:31.308Z,101790.66
2023-02-13T03:18:32.853Z,101794.22
2023-02-13T03:19:52.467Z,101792.44
2023-02-13T03:21:06.144Z,101791.44
2023-02-13T03:22:08.324Z,101789.75
2023-02-13T03:23:15.111Z,101788.91
2023-02-13T03:24:23.234Z,101795.97
2023-02-13T03:25:40.359Z,101778.41
2023-02-13T03:26:46.019Z,101799.13
2023-02-13T03:28:06.407Z,101798.63
2023-02-13T03:29:21.594Z,101800.75
2023-02-13T03:30:51.306Z,101801.22
2023-02-13T03:31:43.168Z,101775.31
2023-02-13T03:32:41.613Z,101809.50
2023-02-13T03:33:40.865Z,101806.13
2023-02-13T03:34:51.247Z,101798.44
2023-02-13T03:36:15.913Z,101791.13
2023-02-13T03:37:28.364Z,101792.69
2023-02-13T03:38:48.671Z,101804.22
2023-02-13T03:40:05.486Z,101814.53
2023-02-13T03:41:19.508Z,101784.00
2023-02-13T03:42:15.807Z,101815.38
2023-02-13T03:43:14.341Z,101818.81
2023-02-13T03:44:03.614Z,101817.03
2023-02-13T03:45:24.429Z,101814.66
2023-02-13T03:46:22.379Z,101807.59
2023-02-13T03:47:06.861Z,101779.16
2023-02-13T03:47:52.725Z,101818.97
2023-02-13T03:49:00.131Z,101813.88
2023-02-13T03:50:07.925Z,101807.28
2023-02-13T03:50:53.170Z,101819.25
2023-02-13T03:52:05.469Z,101822.78
2023-02-13T03:53:06.247Z,101805.72
2023-02-13T03:54:03.829Z,101812.78
2023-02-13T03:55:15.023Z,101793.34
2023-02-13T03:56:27.981Z,101816.78
2023-02-13T03:57:53.476Z,101801.03
2023-02-13T03:59:09.092Z,101810.25
2023-02-13T03:59:53.914Z,101818.72
2023-02-13T04:00:46.539Z,101820.50
2023-02-13T04:01:41.419Z,101801.03
2023-02-13T04:02:42.628Z,101826.56
2023-02-13T04:03:31.929Z,101819.66
2023-02-13T04:05:04.774Z,101823.16
2023-02-13T04:05:54.376Z,101825.84
2023-02-13T04:06:58.134Z,101824.22
2023-02-13T04:07:39.945Z,101825.22
2023-02-13T04:08:37.316Z,101800.97
2023-02-13T04:09:19.183Z,101815.47
2023-02-13T04:10:12.644Z,101825.53
2023-02-13T04:11:07.572Z,101829.84
2023-02-13T04:12:01.232Z,101819.44
2023-02-13T04:13:07.750Z,101823.13
2023-02-13T04:14:02.409Z,101824.03
2023-02-13T04:14:49.265Z,101826.66
2023-02-13T04:15:53.990Z,101800.66
2023-02-13T04:16:55.668Z,101814.19
2023-02-13T04:18:07.853Z,101816.66
2023-02-13T04:18:55.743Z,101830.28
2023-02-13T04:19:57.591Z,101823.44
2023-02-13T04:20:43.389Z,101827.72
2023-02-13T04:21:37.919Z,101831.88
2023-02-13T04:22:25.349Z,101820.97
2023-02-13T04:23:09.886Z,101834.47
2023-02-13T04:23:54.476Z,101783.59
2023-02-13T04:24:39.001Z,101826.81
2023-02-13T04:25:20.832Z,101827.22
2023-02-13T04:26:28.319Z,101813.97
2023-02-13T04:27:20.666Z,101835.91
2023-02-13T04:28:05.579Z,101823.91
2023-02-13T04:28:48.587Z,101829.06
2023-02-13T04:29:33.154Z,101834.06
2023-02-13T04:30:16.526Z,101838.28
2023-02-13T04:31:09.815Z,101835.66
2023-02-13T04:31:54.478Z,101816.44
2023-02-13T04:32:42.027Z,101823.19
2023-02-13T04:33:26.045Z,101812.91
2023-02-13T04:34:07.872Z,101818.75
2023-02-13T04:34:56.761Z,101837.47
2023-02-13T04:36:55.656Z,101794.84
2023-02-13T04:37:40.020Z,101835.38
2023-02-13T04:38:24.419Z,101818.47
2023-02-13T04:39:14.885Z,101822.59
2023-02-13T04:39:58.796Z,101802.09
2023-02-13T04:40:43.172Z,101828.09
2023-02-13T04:41:24.894Z,101833.16
2023-02-13T04:42:17.745Z,101793.28
2023-02-13T04:43:04.738Z,101809.97
2023-02-13T04:44:01.070Z,101834.78
2023-02-13T04:44:53.081Z,101836.47
2023-02-13T04:45:34.903Z,101816.78
2023-02-13T04:46:17.871Z,101837.25
2023-02-13T04:47:08.398Z,101797.91
2023-02-13T04:48:02.571Z,101828.25
2023-02-13T04:48:47.582Z,101823.88
2023-02-13T04:49:38.812Z,101827.19
2023-02-13T04:50:26.092Z,101831.44
2023-02-13T04:51:09.460Z,101820.84
2023-02-13T04:51:51.168Z,101824.19
2023-02-13T04:52:32.982Z,101821.56
2023-02-13T04:53:17.296Z,101788.84
2023-02-13T04:54:16.625Z,101795.75
2023-02-13T04:55:00.879Z,101819.28
2023-02-13T04:55:47.602Z,101783.16
2023-02-13T04:56:32.287Z,101821.06
2023-02-13T04:57:20.667Z,101819.56
2023-02-13T04:58:12.577Z,101820.97
2023-02-13T04:58:59.845Z,101815.19
2023-02-13T04:59:47.117Z,101826.06
2023-02-13T05:00:29.295Z,101829.41
2023-02-13T05:01:18.528Z,101824.91
2023-02-13T05:02:00.250Z,101814.59
2023-02-13T05:02:46.143Z,101818.69
2023-02-13T05:03:30.768Z,101826.59
2023-02-13T05:04:17.534Z,101823.06
2023-02-13T05:05:04.895Z,101816.66
2023-02-13T05:05:49.722Z,101793.06
2023-02-13T05:06:33.113Z,101819.06
2023-02-13T05:07:17.954Z,101817.50
2023-02-13T05:08:19.874Z,101833.94
2023-02-13T05:09:07.279Z,101815.13
2023-02-13T05:09:56.443Z,101827.63
2023-02-13T05:10:42.171Z,101807.41
2023-02-13T05:11:26.200Z,101835.31
2023-02-13T05:12:17.774Z,101810.97
2023-02-13T05:13:05.381Z,101792.22
2023-02-13T05:13:47.039Z,101799.72
2023-02-13T05:14:35.532Z,101818.34
2023-02-13T05:15:22.490Z,101818.09
2023-02-13T05:16:04.334Z,101832.38
2023-02-13T05:17:03.814Z,101830.38
2023-02-13T05:17:49.388Z,101829.47
2023-02-13T05:18:44.324Z,101823.94
2023-02-13T05:19:26.081Z,101826.41
2023-02-13T05:20:17.169Z,101832.47
2023-02-13T05:21:17.471Z,101807.19
2023-02-13T05:22:20.657Z,101799.50
2023-02-13T05:23:24.970Z,101836.16
2023-02-13T05:24:10.827Z,101810.03
2023-02-13T05:24:52.474Z,101834.63
2023-02-13T05:25:35.461Z,101836.31
2023-02-13T05:26:17.103Z,101808.25
2023-02-13T05:27:01.545Z,101833.47
2023-02-13T05:27:46.229Z,101821.47
2023-02-13T05:28:49.504Z,101818.88
2023-02-13T05:29:31.183Z,101807.63
2023-02-13T05:30:13.684Z,101820.16
2023-02-13T05:31:01.540Z,101835.47
2023-02-13T05:31:43.611Z,101815.75
2023-02-13T05:32:30.958Z,101826.63
2023-02-13T05:33:19.541Z,101831.66
2023-02-13T05:34:03.681Z,101821.19
2023-02-13T05:34:50.035Z,101825.66
2023-02-13T05:35:33.982Z,101809.38
2023-02-13T05:37:36.111Z,101831.47
2023-02-13T05:38:20.820Z,101824.97
2023-02-13T05:39:12.396Z,101834.34
2023-02-13T05:39:56.865Z,101832.13
2023-02-13T05:40:46.234Z,101829.94
2023-02-13T05:41:30.749Z,101821.22
2023-02-13T05:42:16.461Z,101821.31
2023-02-13T05:43:03.837Z,101817.41
2023-02-13T05:43:50.555Z,101825.34
2023-02-13T05:44:37.199Z,101790.31
2023-02-13T05:45:26.581Z,101794.19
2023-02-13T05:46:10.258Z,101828.47
2023-02-13T05:46:53.274Z,101800.91
2023-02-13T05:47:37.847Z,101813.41
2023-02-13T05:48:31.878Z,101799.00
2023-02-13T05:49:23.436Z,101829.19
2023-02-13T05:50:05.917Z,101827.16
2023-02-13T05:50:58.285Z,101812.47
2023-02-13T05:51:50.699Z,101817.41
2023-02-13T05:52:36.704Z,101829.84
2023-02-13T05:53:18.403Z,101826.38
2023-02-13T05:54:00.206Z,101821.00
2023-02-13T05:54:47.752Z,101806.53
2023-02-13T05:55:38.687Z,101801.38
2023-02-13T05:56:26.532Z,101820.66
2023-02-13T05:57:08.228Z,101822.34
2023-02-13T05:58:05.167Z,101808.84
2023-02-13T05:58:46.931Z,101802.69
2023-02-13T05:59:30.029Z,101804.38
2023-02-13T06:00:14.701Z,101813.88
2023-02-13T06:01:00.765Z,101809.41
2023-02-13T06:01:46.779Z,101807.84
2023-02-13T06:02:40.535Z,101784.50
2023-02-13T06:03:29.002Z,101809.59
2023-02-13T06:04:13.891Z,101813.41
2023-02-13T06:04:55.666Z,101790.63
2023-02-13T06:05:37.354Z,101811.06
2023-02-13T06:06:22.773Z,101803.72
2023-02-13T06:07:05.460Z,101814.19
2023-02-13T06:07:55.616Z,101812.56
2023-02-13T06:08:40.120Z,101771.16
2023-02-13T06:09:27.151Z,101784.28
2023-02-13T06:10:18.559Z,101814.59
2023-02-13T06:11:00.660Z,101794.94
2023-02-13T06:11:45.227Z,101798.72
2023-02-13T06:12:26.863Z,101793.66
2023-02-13T06:13:14.150Z,101782.50
2023-02-13T06:13:58.693Z,101811.63
2023-02-13T06:14:48.891Z,101807.84
2023-02-13T06:15:38.435Z,101806.84
2023-02-13T06:16:26.884Z,101810.88
2023-02-13T06:17:08.675Z,101777.75
2023-02-13T06:17:58.610Z,101807.31
2023-02-13T06:18:43.462Z,101815.56
2023-02-13T06:19:29.359Z,101801.91
2023-02-13T06:20:15.582Z,101795.31
2023-02-13T06:20:57.675Z,101786.19
2023-02-13T06:21:44.267Z,101808.22
2023-02-13T06:22:33.543Z,101811.69
2023-02-13T06:23:20.915Z,101804.25
2023-02-13T06:24:05.886Z,101805.28
2023-02-13T06:24:50.250Z,101813.31
2023-02-13T06:25:43.839Z,101787.72
2023-02-13T06:26:25.548Z,101786.13
2023-02-13T06:27:07.239Z,101817.56
2023-02-13T06:27:53.748Z,101782.81
2023-02-13T06:28:41.495Z,101815.94
2023-02-13T06:29:26.275Z,101820.41
2023-02-13T06:30:08.532Z,101828.28
2023-02-13T06:30:55.824Z,101808.44
2023-02-13T06:31:40.371Z,101823.78
2023-02-13T06:32:30.303Z,101807.00
2023-02-13T06:33:15.095Z,101788.00
2023-02-13T06:34:08.565Z,101826.25
2023-02-13T06:34:53.060Z,101818.13
2023-02-13T06:35:37.935Z,101796.25
2023-02-13T06:36:25.724Z,101823.53
2023-02-13T06:37:09.687Z,101829.03
2023-02-13T06:37:51.428Z,101824.72
2023-02-13T06:38:41.631Z,101823.72
2023-02-13T06:39:26.082Z,101838.16
2023-02-13T06:40:12.891Z,101842.63
2023-02-13T06:41:00.900Z,101837.53
2023-02-13T06:41:47.902Z,101814.72
2023-02-13T06:42:31.709Z,101835.00
2023-02-13T06:43:37.783Z,101822.84
2023-02-13T06:44:24.427Z,101839.06
2023-02-13T06:45:09.888Z,101829.16
2023-02-13T06:45:55.012Z,101837.44
2023-02-13T06:46:52.982Z,101827.53
2023-02-13T06:47:50.299Z,101833.63
2023-02-13T06:48:32.034Z,101848.88
2023-02-13T06:49:21.030Z,101841.59
2023-02-13T06:50:16.613Z,101830.44
2023-02-13T06:51:06.924Z,101836.34
2023-02-13T06:51:50.880Z,101840.91
2023-02-13T06:52:32.600Z,101856.28
2023-02-13T06:53:16.615Z,101815.03
2023-02-13T06:54:00.815Z,101856.53
2023-02-13T06:54:52.282Z,101852.47
2023-02-13T06:55:34.033Z,101856.72
2023-02-13T06:56:17.148Z,101842.25
2023-02-13T06:57:04.542Z,101857.56
2023-02-13T06:57:49.345Z,101860.25
2023-02-13T06:58:37.891Z,101855.25
2023-02-13T06:59:23.747Z,101855.47
2023-02-13T07:00:18.196Z,101858.78
2023-02-13T07:01:13.745Z,101850.19
2023-02-13T07:02:03.045Z,101839.34
2023-02-13T07:02:46.650Z,101860.06
2023-02-13T07:03:45.249Z,101843.00
2023-02-13T07:04:29.949Z,101846.47
2023-02-13T07:05:12.087Z,101855.75
2023-02-13T07:06:00.141Z,101862.44
2023-02-13T07:06:49.780Z,101842.59
2023-02-13T07:07:46.936Z,101856.78
2023-02-13T07:08:29.308Z,101864.09
2023-02-13T07:09:16.045Z,101864.75
2023-02-13T07:10:00.783Z,101860.38
2023-02-13T07:10:42.618Z,101856.66
2023-02-13T07:11:25.402Z,101861.75
2023-02-13T07:12:13.924Z,101856.44
2023-02-13T07:13:06.507Z,101852.28
2023-02-13T07:13:50.527Z,101851.25
2023-02-13T07:14:32.283Z,101822.63
2023-02-13T07:15:17.023Z,101842.66
2023-02-13T07:16:01.263Z,101854.97
2023-02-13T07:16:45.460Z,101857.53
2023-02-13T07:17:37.352Z,101857.53
2023-02-13T07:18:23.382Z,101850.16
2023-02-13T07:19:16.603Z,101832.16
2023-02-13T07:20:04.703Z,101843.88
2023-02-13T07:20:52.889Z,101849.25
2023-02-13T07:21:38.012Z,101856.47
2023-02-13T07:22:30.039Z,101843.13
2023-02-13T07:23:15.765Z,101823.16
2023-02-13T07:23:57.448Z,101838.00
2023-02-13T07:24:50.496Z,101849.78
2023-02-13T07:25:47.105Z,101832.53
2023-02-13T07:26:52.927Z,101848.53
2023-02-13T07:27:36.572Z,101857.13
2023-02-13T07:28:22.241Z,101853.59
2023-02-13T07:29:12.136Z,101854.53
2023-02-13T07:29:56.456Z,101864.75
2023-02-13T07:31:05.113Z,101848.53
2023-02-13T07:31:52.571Z,101867.19
2023-02-13T07:32:41.076Z,101840.06
2023-02-13T07:33:24.396Z,101842.28
2023-02-13T07:34:07.671Z,101822.06
2023-02-13T07:35:01.255Z,101832.31
2023-02-13T07:35:52.494Z,101868.66
2023-02-13T07:36:34.290Z,101856.63
2023-02-13T07:37:16.007Z,101823.69
2023-02-13T07:38:00.835Z,101869.34
2023-02-13T07:38:47.928Z,101865.75
2023-02-13T07:39:31.701Z,101854.78
2023-02-13T07:40:13.527Z,101870.00
2023-02-13T07:40:55.791Z,101835.00
2023-02-13T07:41:37.714Z,101862.91
2023-02-13T07:42:24.941Z,101866.13
2023-02-13T07:43:18.171Z,101867.63
2023-02-13T07:44:09.137Z,101872.72
2023-02-13T07:44:50.868Z,101860.53
2023-02-13T07:45:34.513Z,101867.31
2023-02-13T07:46:16.295Z,101848.56
2023-02-13T07:47:05.691Z,101840.94
2023-02-13T07:47:50.220Z,101866.22
2023-02-13T07:48:43.525Z,101835.72
2023-02-13T07:49:29.058Z,101810.19
2023-02-13T07:51:15.590Z,101856.31
2023-02-13T07:52:00.388Z,101824.81
2023-02-13T07:52:43.368Z,101831.41
2023-02-13T07:53:31.593Z,101860.31
2023-02-13T07:54:22.336Z,101861.16
2023-02-13T07:55:08.932Z,101834.03
2023-02-13T07:55:50.613Z,101853.94
2023-02-13T07:56:47.922Z,101839.25
2023-02-13T07:57:34.544Z,101830.97
2023-02-13T07:58:18.420Z,101847.63
2023-02-13T07:59:08.599Z,101848.53
2023-02-13T08:00:05.209Z,101844.84
2023-02-13T08:01:00.120Z,101829.72
2023-02-13T08:01:44.640Z,101840.59
2023-02-13T08:02:26.364Z,101821.25
2023-02-13T08:03:25.324Z,101827.75
2023-02-13T08:04:17.170Z,101829.84
2023-02-13T08:05:13.512Z,101815.94
2023-02-13T08:05:58.309Z,101841.16
2023-02-13T08:06:49.781Z,101835.75
2023-02-13T08:07:34.564Z,101811.88
2023-02-13T08:08:23.263Z,101829.59
2023-02-13T08:09:39.664Z,101827.06
2023-02-13T08:10:51.592Z,101840.59
2023-02-13T08:11:58.646Z,101779.78
2023-02-13T08:12:55.669Z,101810.88
2023-02-13T08:13:39.806Z,101831.38
2023-02-13T08:14:29.674Z,101846.94
2023-02-13T08:15:23.768Z,101839.25
2023-02-13T08:16:10.848Z,101841.13
2023-02-13T08:17:04.852Z,101837.56
2023-02-13T08:17:49.251Z,101838.38
2023-02-13T08:18:47.961Z,101839.91
2023-02-13T08:19:38.208Z,101814.41
2023-02-13T08:20:26.576Z,101842.94
2023-02-13T08:21:10.371Z,101821.84
2023-02-13T08:22:03.676Z,101809.78
2023-02-13T08:22:50.240Z,101815.09
2023-02-13T08:23:38.992Z,101804.75
2023-02-13T08:24:23.559Z,101833.38
2023-02-13T08:25:08.885Z,101839.88
2023-02-13T08:25:50.571Z,101836.91
2023-02-13T08:26:41.194Z,101791.03
2023-02-13T08:27:28.095Z,101805.88
2023-02-13T08:28:11.913Z,101836.19
2023-02-13T08:29:16.725Z,101816.84
2023-02-13T08:30:03.186Z,101822.25
2023-02-13T08:30:47.566Z,101831.66
2023-02-13T08:31:38.931Z,101797.22
2023-02-13T08:32:24.877Z,101806.59
2023-02-13T08:33:06.719Z,101832.59
2023-02-13T08:33:48.481Z,101824.16
2023-02-13T08:34:30.263Z,101832.41
2023-02-13T08:35:12.213Z,101829.72
2023-02-13T08:35:53.904Z,101825.31
2023-02-13T08:36:47.616Z,101834.56
2023-02-13T08:37:35.158Z,101827.31
2023-02-13T08:38:30.197Z,101817.81
2023-02-13T08:39:14.989Z,101798.25
2023-02-13T08:40:02.127Z,101798.06
2023-02-13T08:40:48.646Z,101808.28
2023-02-13T08:42:15.986Z,101808.00
2023-02-13T08:43:09.830Z,101829.22
2023-02-13T08:44:13.510Z,101831.03
2023-02-13T08:45:07.952Z,101832.06
2023-02-13T08:45:56.007Z,101829.06
2023-02-13T08:46:53.224Z,101826.06
2023-02-13T08:47:38.094Z,101827.69
2023-02-13T08:49:23.558Z,101782.47
2023-02-13T08:50:12.800Z,101821.94
2023-02-13T08:51:04.626Z,101821.28
2023-02-13T08:51:49.639Z,101795.41
2023-02-13T08:52:36.788Z,101818.13
2023-02-13T08:53:35.738Z,101812.09
2023-02-13T08:54:37.612Z,101816.22
2023-02-13T08:55:29.588Z,101823.91
2023-02-13T08:56:20.161Z,101821.19
2023-02-13T08:57:11.593Z,101823.53
2023-02-13T08:57:55.797Z,101818.00
2023-02-13T08:58:44.204Z,101808.91
2023-02-13T08:59:28.529Z,101821.16
2023-02-13T09:00:21.017Z,101802.59
2023-02-13T09:01:15.780Z,101820.22
2023-02-13T09:02:10.626Z,101800.13
2023-02-13T09:04:29.028Z,101809.16
2023-02-13T09:05:27.474Z,101778.91
2023-02-13T09:06:21.813Z,101797.00
2023-02-13T09:07:09.408Z,101802.59
2023-02-13T09:07:53.758Z,101802.41
2023-02-13T09:08:42.383Z,101801.28
2023-02-13T09:09:37.257Z,101781.16
2023-02-13T09:10:33.054Z,101794.00
2023-02-13T09:11:19.499Z,101801.13
2023-02-13T09:12:15.568Z,101779.81
2023-02-13T09:13:09.992Z,101807.50
2023-02-13T09:14:00.562Z,101787.56
2023-02-13T09:14:54.423Z,101774.56
2023-02-13T09:15:58.672Z,101802.59
2023-02-13T09:16:48.391Z,101819.91
2023-02-13T09:17:48.699Z,101819.47
2023-02-13T09:18:41.396Z,101815.84
2023-02-13T09:19:25.615Z,101813.50
2023-02-13T09:20:12.449Z,101816.88
2023-02-13T09:21:17.919Z,101805.25
2023-02-13T09:22:05.776Z,101821.63
2023-02-13T09:22:52.103Z,101818.91
2023-02-13T09:23:41.554Z,101800.63
2023-02-13T09:24:36.642Z,101811.94
2023-02-13T09:25:51.321Z,101815.50
2023-02-13T09:27:04.650Z,101826.22
2023-02-13T09:27:57.110Z,101817.69
2023-02-13T09:28:59.556Z,101810.84
2023-02-13T09:29:47.349Z,101828.38
2023-02-13T09:30:39.912Z,101813.22
2023-02-13T09:31:40.082Z,101798.25
2023-02-13T09:32:35.350Z,101786.03
2023-02-13T09:33:38.265Z,101792.28
2023-02-13T09:34:32.827Z,101799.59
2023-02-13T09:35:27.126Z,101789.41
2023-02-13T09:36:23.613Z,101804.44
2023-02-13T09:37:43.518Z,101804.16
2023-02-13T09:38:33.472Z,101801.94
2023-02-13T09:39:30.471Z,101777.19
2023-02-13T09:40:31.298Z,101767.00
2023-02-13T09:41:42.032Z,101802.63
2023-02-13T09:42:39.712Z,101808.75
2023-02-13T09:44:05.503Z,101797.66
2023-02-13T09:45:11.161Z,101775.56
2023-02-13T09:46:43.729Z,101797.78
2023-02-13T09:47:34.753Z,101797.09
2023-02-13T09:48:31.829Z,101796.53
2023-02-13T09:49:35.208Z,101796.75
2023-02-13T09:50:25.324Z,101802.47
2023-02-13T09:51:28.956Z,101790.13
2023-02-13T09:52:41.791Z,101794.88
2023-02-13T09:53:37.714Z,101791.28
2023-02-13T09:54:32.154Z,101783.09
2023-02-13T09:55:30.109Z,101795.31
2023-02-13T09:56:19.997Z,101799.25
2023-02-13T09:57:15.350Z,101788.91
2023-02-13T09:58:38.812Z,101794.75
2023-02-13T09:59:35.257Z,101792.53
2023-02-13T10:00:39.458Z,101768.25
2023-02-13T10:01:52.878Z,101788.63
2023-02-13T10:03:13.396Z,101774.09
2023-02-13T10:04:30.516Z,101788.44
2023-02-13T10:05:32.235Z,101802.50